PWSweather.com
Personal Weather Stations
Station Observations
IPOITOUC11
Poitou Charentes, MareuilFR 16170

Poitou CharentesMareuilFR 16170

Lat: 45.761952, Lon: -0.15817

Elevation: 143.2

Station Type: WMR300 Oregon scientific

http://jarnacmeteo.cabanova.com

Latest ConditionsUpdated 3:00:01 PM GMT+01:01 Sunday, Dec 15, 2019
Currently Today's Max Today's Min Today's Average
Temperature 54.7°F12.6°C 54.7°F12.6°C 50.5°F10.3°C 52.6°F11.4°C
Dew Point 52.7°F11.5°C 53.0°F11.7°C 49.7°F9.8°C 51.1°F10.6°C
Winds 4.6 mph S7.4 kmh S 13.8 mph -22.2 kmh - - 7.4 mph 11.9 kmh
Wind Gusts 5.8 mph9.3 kmh 23.0 mph37.0 kmh - -
Humidity 93% 97% 92% 95%
Pressure 29.79 in1008.8 mb 29.82 in1009.8 mb 29.74 in1007.1 mb -
Precipitation - 0.21 in5.3 mm - -
Hour Temp Dew Point Humidity Winds Wind Gusts Pressure Precip Precip Rate Daily Precip Total
03:00 PM 54.7°F12.6°C 52.7°F11.5°C 93% 4.6 mph S7.4 kmh S 5.8 mph9.3 kmh 29.79 in1008.8 mb - 0.00 in0.0 mm 0.21 in5.3 mm
02:30 PM 54.7°F12.6°C 52.7°F11.5°C 93% 6.9 mph S11.1 kmh S 10.4 mph16.7 kmh 29.78 in1008.5 mb - 0.00 in0.0 mm 0.21 in5.3 mm
02:00 PM 54.7°F12.6°C 53.0°F11.7°C 94% 6.9 mph S11.1 kmh S 8.1 mph13.0 kmh 29.79 in1008.8 mb - 0.00 in0.0 mm 0.21 in5.3 mm
01:30 PM 54.5°F12.5°C 52.8°F11.6°C 94% 6.9 mph S11.1 kmh S 8.1 mph13.0 kmh 29.79 in1008.8 mb - 0.00 in0.0 mm 0.21 in5.3 mm
01:00 PM 54.0°F12.2°C 52.6°F11.4°C 95% 6.9 mph S11.1 kmh S 9.2 mph14.8 kmh 29.80 in1009.1 mb - 0.00 in0.0 mm 0.21 in5.3 mm
12:30 PM 53.1°F11.7°C 51.7°F10.9°C 95% 6.9 mph S11.1 kmh S 9.2 mph14.8 kmh 29.80 in1009.1 mb - 0.00 in0.0 mm 0.21 in5.3 mm
12:00 PM 52.5°F11.4°C 51.7°F10.9°C 97% 6.9 mph S11.1 kmh S 8.1 mph13.0 kmh 29.82 in1009.8 mb - 0.00 in0.0 mm 0.21 in5.3 mm
11:30 AM 51.7°F10.9°C 50.9°F10.5°C 97% 5.8 mph S9.3 kmh S 9.2 mph14.8 kmh 29.82 in1009.8 mb - 0.00 in0.0 mm 0.21 in5.3 mm
11:00 AM 51.4°F10.8°C 50.6°F10.3°C 97% 4.6 mph S7.4 kmh S 8.1 mph13.0 kmh 29.81 in1009.5 mb - 0.00 in0.0 mm 0.21 in5.3 mm
10:30 AM 50.9°F10.5°C 50.1°F10.1°C 97% 4.6 mph SSE7.4 kmh SSE 6.9 mph11.1 kmh 29.80 in1009.1 mb - 0.00 in0.0 mm 0.21 in5.3 mm
10:00 AM 50.6°F10.3°C 49.8°F9.9°C 97% 4.6 mph S7.4 kmh S 5.8 mph9.3 kmh 29.80 in1009.1 mb - 0.01 in0.3 mm 0.21 in5.3 mm
09:30 AM 50.5°F10.3°C 49.7°F9.8°C 97% 4.6 mph S7.4 kmh S 6.9 mph11.1 kmh 29.79 in1008.8 mb - 0.02 in0.5 mm 0.21 in5.3 mm
09:00 AM 50.5°F10.3°C 49.7°F9.8°C 97% 4.6 mph S7.4 kmh S 10.4 mph16.7 kmh 29.79 in1008.8 mb - 0.01 in0.3 mm 0.19 in4.8 mm
08:30 AM 50.6°F10.3°C 49.8°F9.9°C 97% 4.6 mph S7.4 kmh S 6.9 mph11.1 kmh 29.79 in1008.8 mb - 0.04 in1.0 mm 0.19 in4.8 mm
07:30 AM 51.1°F10.6°C 50.3°F10.2°C 97% 3.5 mph SSW5.6 kmh SSW 8.1 mph13.0 kmh 29.77 in1008.1 mb - 0.02 in0.5 mm 0.16 in4.1 mm
07:00 AM 51.4°F10.8°C 50.6°F10.3°C 97% 6.9 mph WSW11.1 kmh WSW 8.1 mph13.0 kmh 29.76 in1007.8 mb - 0.05 in1.3 mm 0.15 in3.8 mm
06:30 AM 52.0°F11.1°C 51.2°F10.7°C 97% 3.5 mph WSW5.6 kmh WSW 9.2 mph14.8 kmh 29.75 in1007.5 mb - 0.06 in1.5 mm 0.14 in3.6 mm
06:00 AM 52.2°F11.2°C 51.3°F10.7°C 97% 5.8 mph S9.3 kmh S 5.8 mph9.3 kmh 29.75 in1007.5 mb - 0.04 in1.0 mm 0.10 in2.5 mm
05:30 AM 52.3°F11.3°C 50.7°F10.4°C 94% 9.2 mph SSW14.8 kmh SSW 8.1 mph13.0 kmh 29.75 in1007.5 mb - 0.04 in1.0 mm 0.08 in2.0 mm
05:00 AM 53.2°F11.8°C 51.2°F10.7°C 93% 12.7 mph S20.4 kmh S 16.1 mph25.9 kmh 29.75 in1007.5 mb - 0.01 in0.3 mm 0.06 in1.5 mm
04:30 AM 53.4°F11.9°C 51.4°F10.8°C 93% 11.5 mph S18.5 kmh S 16.1 mph25.9 kmh 29.74 in1007.1 mb - 0.01 in0.3 mm 0.05 in1.3 mm
04:00 AM 53.2°F11.8°C 51.3°F10.7°C 93% 10.4 mph S16.7 kmh S 11.5 mph18.5 kmh 29.74 in1007.1 mb - 0.02 in0.5 mm 0.05 in1.3 mm
03:30 AM 52.9°F11.6°C 51.2°F10.7°C 94% 9.2 mph S14.8 kmh S 12.7 mph20.4 kmh 29.76 in1007.8 mb - 0.03 in0.8 mm 0.04 in1.0 mm
03:00 AM 52.5°F11.4°C 50.6°F10.3°C 93% 8.1 mph S13.0 kmh S 12.7 mph20.4 kmh 29.75 in1007.5 mb - 0.02 in0.5 mm 0.03 in0.8 mm
02:30 AM 52.5°F11.4°C 50.3°F10.2°C 92% 8.1 mph S13.0 kmh S 11.5 mph18.5 kmh 29.74 in1007.1 mb - 0.01 in0.3 mm 0.01 in0.3 mm
02:00 AM 52.5°F11.4°C 50.3°F10.2°C 92% 9.2 mph S14.8 kmh S 17.3 mph27.8 kmh 29.75 in1007.5 mb - 0.01 in0.3 mm 0.01 in0.3 mm
01:30 AM 53.1°F11.7°C 50.8°F10.4°C 92% 10.4 mph S16.7 kmh S 16.1 mph25.9 kmh 29.77 in1008.1 mb - 0.01 in0.3 mm 0.01 in0.3 mm
01:00 AM 53.4°F11.9°C 51.2°F10.7°C 92% 9.2 mph S14.8 kmh S 9.2 mph14.8 kmh 29.76 in1007.8 mb - 0.00 in0.0 mm 0.02 in0.5 mm
12:30 AM 54.0°F12.2°C 51.7°F10.9°C 92% 10.4 mph S16.7 kmh S 11.5 mph18.5 kmh 29.76 in1007.8 mb - 0.01 in0.3 mm 0.02 in0.5 mm
12:00 AM 54.0°F12.2°C 51.7°F10.9°C 92% 13.8 mph SSW22.2 kmh SSW 23.0 mph37.0 kmh 29.77 in1008.1 mb - 0.01 in0.3 mm 0.01 in0.3 mm